Hauptseite
METAR-TAF:

METAR-TAF

Flughäfen :

Fliegerhorst Nordholz

Nordholz, Deutschland

Breite: 53-46N, Länge: 008-40E, Höhe: 23 m

Beobachtung

Neuester Wetterbericht von vor 52 Minuten, um 04:20 UTC
Wind 8 kt aus Süd/Südwest
Temperatur 9°C
Luftfeuchtigkeit 81%
Luftdruck 1022 hPa
Sichtweite 10 km oder mehr

METAR: ETMN 070420Z 20008KT 9999 09/06 Q1022 BLU+BLU+

Zeit: 07:12 (05:12 UTC)

Prognose

Neuester Wetterbericht von vor 59 Minuten, um 04:13 UTC
Gültige Prognose vom 07 um 05 UTC bis 07 um 14 UTC
Wind 12 kt aus Süd/Südwest, Böen bis zu 22 kt
Sichtweite 10 km oder mehr
Leicht bewölkt in der Höhe von 3000 ft
Zeitweise
vom 07 um 09 UTC bis 07 um 14 UTC
Wind 15 kt aus Süd/Südwest, Böen bis zu 25 kt
Sichtweite 10 km oder mehr
Leicht bewölkt in der Höhe von 3000 ft

TAF: ETMN 070413Z 0705/0714 20012G22KT 9999 NSW FEW030 TEMPO 0709/0714 20015G25KT 9999 NSW FEW030

Wetterbeobachtungen und Prognosen von mehr als 4000 Flughäfen (METAR und TAF Bericht).

Die verfügbaren Stationen werden durch gelbe und rote Markierungen auf der Karte dargestellt.

Führen Sie die Maus auf sie, um den Namen der Station zu sehen.

Darauf klicken, um die Beobachtung von Wetterbeobachtungen und Prognosen zu sehen.

Um die Karte zu ändern : klicken Sie auf den grünen Tasten mit einem schwarzen Kreuz Zum Vergrößern, auf den grünen Button mit einem Gedankenstrich zu verkleinern, oder auf die grünen Pfeile für benachbarte Karten.


METAR-TAF: